Terminal Aerodrome Forecast
Issued by NWS Houston/Galveston, TX

Home | Current Version | Previous Version | Text Only | Print | Product List | Glossary On
Versions: 1 2 3 4 5 6 7 8 9 10 11 12 13 14 15 16 17 18 19 20 21 22 23 24 25 26 27 28
000
FTUS44 KHGX 311521 AAB
TAFGLS
TAF AMD
KGLS 311521Z 3115/0112 14008KT P6SM VCTS SCT030CB BKN250
      TEMPO 3116/3118 VRB15G25KT 5SM -TSRA BR
     FM312100 15010KT P6SM BKN250
     FM011000 16010KT P6SM VCSH SCT025 BKN250=

USA.gov is the U.S. government's official web portal to all federal, state and local government web resources and services.